sensor_id;sensor_type;location;lat;lon;timestamp;P1;durP1;ratioP1;P2;durP2;ratioP2
20621;SDS011;10470;42.670;23.354;2023-06-22T00:02:22;13.17;;;11.67;;
20621;SDS011;10470;42.670;23.354;2023-06-22T00:04:49;14.10;;;12.53;;
20621;SDS011;10470;42.670;23.354;2023-06-22T00:07:16;14.43;;;11.73;;
20621;SDS011;10470;42.670;23.354;2023-06-22T00:09:43;16.80;;;12.73;;
20621;SDS011;10470;42.670;23.354;2023-06-22T00:12:11;14.50;;;12.53;;
20621;SDS011;10470;42.670;23.354;2023-06-22T00:14:38;16.37;;;11.40;;
20621;SDS011;10470;42.670;23.354;2023-06-22T00:17:05;15.70;;;11.43;;
20621;SDS011;10470;42.670;23.354;2023-06-22T00:19:33;17.17;;;13.07;;
20621;SDS011;10470;42.670;23.354;2023-06-22T00:22:02;15.50;;;13.27;;
20621;SDS011;10470;42.670;23.354;2023-06-22T00:24:30;18.57;;;14.37;;
20621;SDS011;10470;42.670;23.354;2023-06-22T00:26:58;17.47;;;14.33;;
20621;SDS011;10470;42.670;23.354;2023-06-22T00:29:25;15.20;;;13.20;;
20621;SDS011;10470;42.670;23.354;2023-06-22T00:31:52;16.97;;;13.37;;
20621;SDS011;10470;42.670;23.354;2023-06-22T00:34:19;17.10;;;13.43;;
20621;SDS011;10470;42.670;23.354;2023-06-22T00:36:46;15.83;;;13.03;;
20621;SDS011;10470;42.670;23.354;2023-06-22T00:39:14;17.33;;;12.47;;
20621;SDS011;10470;42.670;23.354;2023-06-22T00:41:42;14.63;;;12.23;;
20621;SDS011;10470;42.670;23.354;2023-06-22T00:44:09;14.37;;;12.20;;
20621;SDS011;10470;42.670;23.354;2023-06-22T00:46:37;13.63;;;11.20;;
20621;SDS011;10470;42.670;23.354;2023-06-22T00:49:04;14.10;;;11.53;;
20621;SDS011;10470;42.670;23.354;2023-06-22T00:51:32;15.70;;;11.70;;
20621;SDS011;10470;42.670;23.354;2023-06-22T00:53:59;12.83;;;11.30;;
20621;SDS011;10470;42.670;23.354;2023-06-22T00:56:27;14.87;;;11.90;;
20621;SDS011;10470;42.670;23.354;2023-06-22T00:58:57;14.90;;;11.27;;
20621;SDS011;10470;42.670;23.354;2023-06-22T01:01:26;20.80;;;12.73;;
20621;SDS011;10470;42.670;23.354;2023-06-22T01:03:53;15.10;;;11.37;;
20621;SDS011;10470;42.670;23.354;2023-06-22T01:06:29;14.77;;;11.87;;
20621;SDS011;10470;42.670;23.354;2023-06-22T01:09:06;14.07;;;12.07;;
20621;SDS011;10470;42.670;23.354;2023-06-22T01:11:45;13.87;;;12.30;;
20621;SDS011;10470;42.670;23.354;2023-06-22T01:14:18;15.73;;;11.27;;
20621;SDS011;10470;42.670;23.354;2023-06-22T01:16:51;13.70;;;11.20;;
20621;SDS011;10470;42.670;23.354;2023-06-22T01:22:15;16.23;;;11.37;;
20621;SDS011;10470;42.670;23.354;2023-06-22T01:30:19;12.50;;;11.17;;
20621;SDS011;10470;42.670;23.354;2023-06-22T01:32:47;12.67;;;11.43;;
20621;SDS011;10470;42.670;23.354;2023-06-22T01:35:16;12.70;;;11.07;;
20621;SDS011;10470;42.670;23.354;2023-06-22T01:37:46;13.17;;;11.07;;
20621;SDS011;10470;42.670;23.354;2023-06-22T01:40:13;11.93;;;10.57;;
20621;SDS011;10470;42.670;23.354;2023-06-22T01:42:41;12.87;;;10.67;;
20621;SDS011;10470;42.670;23.354;2023-06-22T01:45:10;11.60;;;10.30;;
20621;SDS011;10470;42.670;23.354;2023-06-22T01:47:39;11.43;;;10.33;;
20621;SDS011;10470;42.670;23.354;2023-06-22T01:50:06;11.33;;;10.00;;
20621;SDS011;10470;42.670;23.354;2023-06-22T01:52:34;11.67;;;10.23;;
20621;SDS011;10470;42.670;23.354;2023-06-22T01:55:02;11.47;;;10.37;;
20621;SDS011;10470;42.670;23.354;2023-06-22T01:57:30;11.20;;;10.10;;
20621;SDS011;10470;42.670;23.354;2023-06-22T02:00:10;11.97;;;10.07;;
20621;SDS011;10470;42.670;23.354;2023-06-22T02:02:59;14.63;;;10.47;;
20621;SDS011;10470;42.670;23.354;2023-06-22T02:05:31;12.00;;;10.70;;
20621;SDS011;10470;42.670;23.354;2023-06-22T02:08:11;14.60;;;11.37;;
20621;SDS011;10470;42.670;23.354;2023-06-22T02:10:45;13.67;;;11.67;;
20621;SDS011;10470;42.670;23.354;2023-06-22T02:13:13;14.13;;;11.53;;
20621;SDS011;10470;42.670;23.354;2023-06-22T02:15:41;15.73;;;12.40;;
20621;SDS011;10470;42.670;23.354;2023-06-22T02:18:09;15.10;;;12.93;;
20621;SDS011;10470;42.670;23.354;2023-06-22T02:20:36;16.50;;;13.73;;
20621;SDS011;10470;42.670;23.354;2023-06-22T02:23:05;16.10;;;14.40;;
20621;SDS011;10470;42.670;23.354;2023-06-22T02:25:33;18.60;;;15.03;;
20621;SDS011;10470;42.670;23.354;2023-06-22T02:28:01;16.17;;;14.50;;
20621;SDS011;10470;42.670;23.354;2023-06-22T02:30:29;20.30;;;15.40;;
20621;SDS011;10470;42.670;23.354;2023-06-22T02:32:57;16.13;;;14.43;;
20621;SDS011;10470;42.670;23.354;2023-06-22T02:35:29;16.60;;;14.03;;
20621;SDS011;10470;42.670;23.354;2023-06-22T02:38:02;15.80;;;13.47;;
20621;SDS011;10470;42.670;23.354;2023-06-22T02:40:30;17.30;;;12.87;;
20621;SDS011;10470;42.670;23.354;2023-06-22T02:42:57;14.13;;;12.37;;
20621;SDS011;10470;42.670;23.354;2023-06-22T02:45:29;14.07;;;12.57;;
20621;SDS011;10470;42.670;23.354;2023-06-22T02:47:55;14.33;;;12.63;;
20621;SDS011;10470;42.670;23.354;2023-06-22T02:50:23;14.03;;;12.10;;
20621;SDS011;10470;42.670;23.354;2023-06-22T02:52:51;14.53;;;11.93;;
20621;SDS011;10470;42.670;23.354;2023-06-22T02:55:18;14.57;;;12.37;;
20621;SDS011;10470;42.670;23.354;2023-06-22T02:57:45;14.80;;;12.37;;
20621;SDS011;10470;42.670;23.354;2023-06-22T03:00:13;15.37;;;12.40;;
20621;SDS011;10470;42.670;23.354;2023-06-22T03:02:44;13.80;;;12.20;;
20621;SDS011;10470;42.670;23.354;2023-06-22T03:05:13;15.97;;;12.00;;
20621;SDS011;10470;42.670;23.354;2023-06-22T03:07:44;14.53;;;11.97;;
20621;SDS011;10470;42.670;23.354;2023-06-22T03:10:13;14.17;;;12.63;;
20621;SDS011;10470;42.670;23.354;2023-06-22T03:12:41;14.40;;;12.70;;
20621;SDS011;10470;42.670;23.354;2023-06-22T03:15:10;14.33;;;12.83;;
20621;SDS011;10470;42.670;23.354;2023-06-22T03:17:39;21.57;;;15.23;;
20621;SDS011;10470;42.670;23.354;2023-06-22T03:20:08;15.63;;;13.80;;
20621;SDS011;10470;42.670;23.354;2023-06-22T03:22:38;18.43;;;14.40;;
20621;SDS011;10470;42.670;23.354;2023-06-22T03:25:07;17.57;;;14.60;;
20621;SDS011;10470;42.670;23.354;2023-06-22T03:27:40;16.53;;;14.20;;
20621;SDS011;10470;42.670;23.354;2023-06-22T03:30:09;16.37;;;14.67;;
20621;SDS011;10470;42.670;23.354;2023-06-22T03:32:38;17.10;;;14.63;;
20621;SDS011;10470;42.670;23.354;2023-06-22T03:35:06;19.07;;;14.83;;
20621;SDS011;10470;42.670;23.354;2023-06-22T03:37:33;17.50;;;15.20;;
20621;SDS011;10470;42.670;23.354;2023-06-22T03:40:00;17.20;;;15.23;;
20621;SDS011;10470;42.670;23.354;2023-06-22T03:42:27;18.57;;;15.60;;
20621;SDS011;10470;42.670;23.354;2023-06-22T03:44:55;19.60;;;16.13;;
20621;SDS011;10470;42.670;23.354;2023-06-22T03:47:22;22.43;;;16.63;;
20621;SDS011;10470;42.670;23.354;2023-06-22T03:49:49;21.60;;;16.63;;
20621;SDS011;10470;42.670;23.354;2023-06-22T03:52:16;18.50;;;14.93;;
20621;SDS011;10470;42.670;23.354;2023-06-22T03:54:43;14.80;;;13.20;;
20621;SDS011;10470;42.670;23.354;2023-06-22T03:57:10;15.70;;;12.67;;
20621;SDS011;10470;42.670;23.354;2023-06-22T03:59:37;15.60;;;13.43;;
20621;SDS011;10470;42.670;23.354;2023-06-22T04:02:05;16.43;;;13.03;;
20621;SDS011;10470;42.670;23.354;2023-06-22T04:04:32;15.10;;;13.30;;
20621;SDS011;10470;42.670;23.354;2023-06-22T04:07:01;15.90;;;13.00;;
20621;SDS011;10470;42.670;23.354;2023-06-22T04:09:28;14.53;;;13.03;;
20621;SDS011;10470;42.670;23.354;2023-06-22T04:11:56;15.53;;;13.90;;
20621;SDS011;10470;42.670;23.354;2023-06-22T04:14:23;21.33;;;14.13;;
20621;SDS011;10470;42.670;23.354;2023-06-22T04:16:51;19.57;;;13.73;;
20621;SDS011;10470;42.670;23.354;2023-06-22T04:19:19;18.73;;;13.60;;
20621;SDS011;10470;42.670;23.354;2023-06-22T04:21:47;16.17;;;13.67;;
20621;SDS011;10470;42.670;23.354;2023-06-22T04:24:15;17.23;;;13.70;;
20621;SDS011;10470;42.670;23.354;2023-06-22T04:26:42;16.27;;;13.70;;
20621;SDS011;10470;42.670;23.354;2023-06-22T04:29:11;16.87;;;13.53;;
20621;SDS011;10470;42.670;23.354;2023-06-22T04:31:39;17.57;;;14.97;;
20621;SDS011;10470;42.670;23.354;2023-06-22T04:34:07;18.83;;;15.03;;
20621;SDS011;10470;42.670;23.354;2023-06-22T04:36:35;16.97;;;14.00;;
20621;SDS011;10470;42.670;23.354;2023-06-22T04:39:09;16.57;;;13.93;;
20621;SDS011;10470;42.670;23.354;2023-06-22T04:41:38;17.10;;;14.23;;
20621;SDS011;10470;42.670;23.354;2023-06-22T04:46:40;17.67;;;14.67;;
20621;SDS011;10470;42.670;23.354;2023-06-22T04:49:08;19.20;;;14.80;;
20621;SDS011;10470;42.670;23.354;2023-06-22T04:51:41;16.67;;;14.63;;
20621;SDS011;10470;42.670;23.354;2023-06-22T04:54:09;22.10;;;15.30;;
20621;SDS011;10470;42.670;23.354;2023-06-22T04:56:36;21.33;;;16.00;;
20621;SDS011;10470;42.670;23.354;2023-06-22T04:59:04;18.67;;;15.03;;
20621;SDS011;10470;42.670;23.354;2023-06-22T05:01:32;21.43;;;17.30;;
20621;SDS011;10470;42.670;23.354;2023-06-22T05:03:58;19.03;;;15.87;;
20621;SDS011;10470;42.670;23.354;2023-06-22T05:06:28;16.27;;;13.90;;
20621;SDS011;10470;42.670;23.354;2023-06-22T05:08:56;16.30;;;13.73;;
20621;SDS011;10470;42.670;23.354;2023-06-22T05:11:26;17.33;;;13.70;;
20621;SDS011;10470;42.670;23.354;2023-06-22T05:13:54;17.77;;;14.73;;
20621;SDS011;10470;42.670;23.354;2023-06-22T05:16:22;18.40;;;15.07;;
20621;SDS011;10470;42.670;23.354;2023-06-22T05:18:52;20.23;;;15.40;;
20621;SDS011;10470;42.670;23.354;2023-06-22T05:21:24;18.83;;;14.07;;
20621;SDS011;10470;42.670;23.354;2023-06-22T05:23:52;16.93;;;14.53;;
20621;SDS011;10470;42.670;23.354;2023-06-22T05:26:20;16.23;;;14.37;;
20621;SDS011;10470;42.670;23.354;2023-06-22T05:28:48;17.60;;;14.00;;
20621;SDS011;10470;42.670;23.354;2023-06-22T05:31:16;15.70;;;13.87;;
20621;SDS011;10470;42.670;23.354;2023-06-22T05:33:45;17.57;;;14.47;;
20621;SDS011;10470;42.670;23.354;2023-06-22T05:36:14;16.77;;;14.40;;
20621;SDS011;10470;42.670;23.354;2023-06-22T05:38:42;18.33;;;14.30;;
20621;SDS011;10470;42.670;23.354;2023-06-22T05:41:10;16.27;;;14.23;;
20621;SDS011;10470;42.670;23.354;2023-06-22T05:43:37;17.50;;;13.83;;
20621;SDS011;10470;42.670;23.354;2023-06-22T05:46:04;16.47;;;13.87;;
20621;SDS011;10470;42.670;23.354;2023-06-22T05:48:31;19.50;;;15.50;;
20621;SDS011;10470;42.670;23.354;2023-06-22T05:50:58;19.20;;;14.87;;
20621;SDS011;10470;42.670;23.354;2023-06-22T05:53:26;16.27;;;14.40;;
20621;SDS011;10470;42.670;23.354;2023-06-22T05:55:53;17.97;;;13.97;;
20621;SDS011;10470;42.670;23.354;2023-06-22T05:58:20;16.37;;;13.80;;
20621;SDS011;10470;42.670;23.354;2023-06-22T06:00:47;19.33;;;14.07;;
20621;SDS011;10470;42.670;23.354;2023-06-22T06:03:14;17.63;;;14.87;;
20621;SDS011;10470;42.670;23.354;2023-06-22T06:05:43;15.90;;;13.83;;
20621;SDS011;10470;42.670;23.354;2023-06-22T06:08:12;17.13;;;14.23;;
20621;SDS011;10470;42.670;23.354;2023-06-22T06:10:38;16.90;;;15.10;;
20621;SDS011;10470;42.670;23.354;2023-06-22T06:13:06;22.07;;;15.37;;
20621;SDS011;10470;42.670;23.354;2023-06-22T06:15:34;18.93;;;15.07;;
20621;SDS011;10470;42.670;23.354;2023-06-22T06:18:01;19.60;;;15.17;;
20621;SDS011;10470;42.670;23.354;2023-06-22T06:20:32;18.13;;;14.47;;
20621;SDS011;10470;42.670;23.354;2023-06-22T06:22:58;17.27;;;14.77;;
20621;SDS011;10470;42.670;23.354;2023-06-22T06:25:25;18.17;;;15.03;;
20621;SDS011;10470;42.670;23.354;2023-06-22T06:27:52;17.87;;;15.23;;
20621;SDS011;10470;42.670;23.354;2023-06-22T06:30:21;16.07;;;13.57;;
20621;SDS011;10470;42.670;23.354;2023-06-22T06:32:50;25.27;;;19.63;;
20621;SDS011;10470;42.670;23.354;2023-06-22T06:35:17;23.63;;;19.80;;
20621;SDS011;10470;42.670;23.354;2023-06-22T06:37:47;20.73;;;15.40;;
20621;SDS011;10470;42.670;23.354;2023-06-22T06:40:16;20.33;;;13.13;;
20621;SDS011;10470;42.670;23.354;2023-06-22T06:42:46;16.07;;;13.10;;
20621;SDS011;10470;42.670;23.354;2023-06-22T06:45:18;13.50;;;12.10;;
20621;SDS011;10470;42.670;23.354;2023-06-22T06:47:46;15.33;;;13.13;;
20621;SDS011;10470;42.670;23.354;2023-06-22T06:50:13;14.60;;;12.87;;
20621;SDS011;10470;42.670;23.354;2023-06-22T06:52:40;14.13;;;12.73;;
20621;SDS011;10470;42.670;23.354;2023-06-22T06:55:09;15.70;;;12.47;;
20621;SDS011;10470;42.670;23.354;2023-06-22T06:57:41;21.17;;;12.50;;
20621;SDS011;10470;42.670;23.354;2023-06-22T07:00:10;15.90;;;12.80;;
20621;SDS011;10470;42.670;23.354;2023-06-22T07:02:40;18.57;;;12.53;;
20621;SDS011;10470;42.670;23.354;2023-06-22T07:05:11;20.73;;;14.13;;
20621;SDS011;10470;42.670;23.354;2023-06-22T07:07:40;16.63;;;13.03;;
20621;SDS011;10470;42.670;23.354;2023-06-22T07:10:09;19.90;;;16.00;;
20621;SDS011;10470;42.670;23.354;2023-06-22T07:12:36;15.90;;;14.30;;
20621;SDS011;10470;42.670;23.354;2023-06-22T07:15:04;17.57;;;13.93;;
20621;SDS011;10470;42.670;23.354;2023-06-22T07:17:32;19.20;;;13.33;;
20621;SDS011;10470;42.670;23.354;2023-06-22T07:20:00;18.07;;;12.30;;
20621;SDS011;10470;42.670;23.354;2023-06-22T07:22:28;15.93;;;13.20;;
20621;SDS011;10470;42.670;23.354;2023-06-22T07:24:55;14.50;;;12.83;;
20621;SDS011;10470;42.670;23.354;2023-06-22T07:27:23;15.03;;;13.33;;
20621;SDS011;10470;42.670;23.354;2023-06-22T07:29:50;19.33;;;12.63;;
20621;SDS011;10470;42.670;23.354;2023-06-22T07:32:18;17.10;;;13.93;;
20621;SDS011;10470;42.670;23.354;2023-06-22T07:34:45;19.27;;;14.30;;
20621;SDS011;10470;42.670;23.354;2023-06-22T07:37:12;17.53;;;13.63;;
20621;SDS011;10470;42.670;23.354;2023-06-22T07:39:40;17.03;;;13.17;;
20621;SDS011;10470;42.670;23.354;2023-06-22T07:42:08;13.57;;;12.17;;
20621;SDS011;10470;42.670;23.354;2023-06-22T07:44:36;13.13;;;11.83;;
20621;SDS011;10470;42.670;23.354;2023-06-22T07:47:03;17.00;;;12.63;;
20621;SDS011;10470;42.670;23.354;2023-06-22T07:49:31;17.87;;;14.87;;
20621;SDS011;10470;42.670;23.354;2023-06-22T07:51:59;15.63;;;12.97;;
20621;SDS011;10470;42.670;23.354;2023-06-22T07:54:27;14.10;;;12.60;;
20621;SDS011;10470;42.670;23.354;2023-06-22T07:56:55;20.77;;;12.77;;
20621;SDS011;10470;42.670;23.354;2023-06-22T07:59:22;17.37;;;12.80;;
20621;SDS011;10470;42.670;23.354;2023-06-22T08:01:49;15.60;;;13.77;;
20621;SDS011;10470;42.670;23.354;2023-06-22T08:04:17;16.37;;;13.50;;
20621;SDS011;10470;42.670;23.354;2023-06-22T08:06:44;15.33;;;12.53;;
20621;SDS011;10470;42.670;23.354;2023-06-22T08:09:12;14.10;;;12.60;;
20621;SDS011;10470;42.670;23.354;2023-06-22T08:11:39;17.23;;;14.27;;
20621;SDS011;10470;42.670;23.354;2023-06-22T08:14:06;16.30;;;13.20;;
20621;SDS011;10470;42.670;23.354;2023-06-22T08:16:34;16.63;;;13.47;;
20621;SDS011;10470;42.670;23.354;2023-06-22T08:19:01;18.23;;;12.93;;
20621;SDS011;10470;42.670;23.354;2023-06-22T08:21:29;19.70;;;13.50;;
20621;SDS011;10470;42.670;23.354;2023-06-22T08:23:57;15.50;;;13.47;;
20621;SDS011;10470;42.670;23.354;2023-06-22T08:26:24;14.73;;;12.83;;
20621;SDS011;10470;42.670;23.354;2023-06-22T08:28:52;14.40;;;12.07;;
20621;SDS011;10470;42.670;23.354;2023-06-22T08:31:20;17.33;;;12.50;;
20621;SDS011;10470;42.670;23.354;2023-06-22T08:33:48;16.30;;;12.57;;
20621;SDS011;10470;42.670;23.354;2023-06-22T08:36:16;18.47;;;11.63;;
20621;SDS011;10470;42.670;23.354;2023-06-22T08:38:44;16.07;;;12.37;;
20621;SDS011;10470;42.670;23.354;2023-06-22T08:41:11;17.00;;;11.40;;
20621;SDS011;10470;42.670;23.354;2023-06-22T08:43:39;13.07;;;11.23;;
20621;SDS011;10470;42.670;23.354;2023-06-22T08:46:07;13.07;;;11.33;;
20621;SDS011;10470;42.670;23.354;2023-06-22T08:48:35;13.90;;;11.00;;
20621;SDS011;10470;42.670;23.354;2023-06-22T08:51:02;13.57;;;10.87;;
20621;SDS011;10470;42.670;23.354;2023-06-22T08:53:31;14.00;;;12.37;;
20621;SDS011;10470;42.670;23.354;2023-06-22T08:55:59;15.20;;;12.53;;
20621;SDS011;10470;42.670;23.354;2023-06-22T08:58:27;15.30;;;12.23;;
20621;SDS011;10470;42.670;23.354;2023-06-22T09:00:53;15.97;;;12.63;;
20621;SDS011;10470;42.670;23.354;2023-06-22T09:03:21;15.70;;;12.93;;
20621;SDS011;10470;42.670;23.354;2023-06-22T09:05:54;17.93;;;13.50;;
20621;SDS011;10470;42.670;23.354;2023-06-22T09:08:22;17.40;;;13.17;;
20621;SDS011;10470;42.670;23.354;2023-06-22T09:10:50;13.70;;;11.67;;
20621;SDS011;10470;42.670;23.354;2023-06-22T09:13:17;13.90;;;11.43;;
20621;SDS011;10470;42.670;23.354;2023-06-22T09:15:45;14.10;;;11.10;;
20621;SDS011;10470;42.670;23.354;2023-06-22T09:18:13;18.40;;;11.40;;
20621;SDS011;10470;42.670;23.354;2023-06-22T09:20:40;14.37;;;9.90;;
20621;SDS011;10470;42.670;23.354;2023-06-22T09:23:08;11.67;;;9.57;;
20621;SDS011;10470;42.670;23.354;2023-06-22T09:25:36;11.03;;;9.53;;
20621;SDS011;10470;42.670;23.354;2023-06-22T09:28:03;10.60;;;9.50;;
20621;SDS011;10470;42.670;23.354;2023-06-22T09:30:30;11.40;;;10.40;;
20621;SDS011;10470;42.670;23.354;2023-06-22T09:32:58;10.77;;;9.67;;
20621;SDS011;10470;42.670;23.354;2023-06-22T09:35:26;12.90;;;10.73;;
20621;SDS011;10470;42.670;23.354;2023-06-22T09:37:53;12.47;;;11.03;;
20621;SDS011;10470;42.670;23.354;2023-06-22T09:40:21;13.13;;;11.73;;
20621;SDS011;10470;42.670;23.354;2023-06-22T09:42:49;15.10;;;11.27;;
20621;SDS011;10470;42.670;23.354;2023-06-22T09:45:17;13.03;;;11.33;;
20621;SDS011;10470;42.670;23.354;2023-06-22T09:47:45;12.10;;;10.87;;
20621;SDS011;10470;42.670;23.354;2023-06-22T09:50:12;13.53;;;11.80;;
20621;SDS011;10470;42.670;23.354;2023-06-22T09:52:40;14.37;;;10.80;;
20621;SDS011;10470;42.670;23.354;2023-06-22T09:55:11;12.67;;;10.60;;
20621;SDS011;10470;42.670;23.354;2023-06-22T09:57:38;14.90;;;11.03;;
20621;SDS011;10470;42.670;23.354;2023-06-22T10:00:05;14.47;;;12.43;;
20621;SDS011;10470;42.670;23.354;2023-06-22T10:02:36;13.57;;;12.17;;
20621;SDS011;10470;42.670;23.354;2023-06-22T10:05:04;13.37;;;11.77;;
20621;SDS011;10470;42.670;23.354;2023-06-22T10:07:32;14.10;;;11.43;;
20621;SDS011;10470;42.670;23.354;2023-06-22T10:09:59;13.40;;;11.60;;
20621;SDS011;10470;42.670;23.354;2023-06-22T10:12:27;13.97;;;12.43;;
20621;SDS011;10470;42.670;23.354;2023-06-22T10:14:54;11.90;;;10.70;;
20621;SDS011;10470;42.670;23.354;2023-06-22T10:17:21;12.80;;;11.40;;
20621;SDS011;10470;42.670;23.354;2023-06-22T10:19:49;12.63;;;11.33;;
20621;SDS011;10470;42.670;23.354;2023-06-22T10:22:17;12.50;;;11.17;;
20621;SDS011;10470;42.670;23.354;2023-06-22T10:24:44;13.73;;;10.93;;
20621;SDS011;10470;42.670;23.354;2023-06-22T10:27:13;11.50;;;10.30;;
20621;SDS011;10470;42.670;23.354;2023-06-22T10:29:41;12.53;;;10.67;;
20621;SDS011;10470;42.670;23.354;2023-06-22T10:32:09;11.80;;;10.70;;
20621;SDS011;10470;42.670;23.354;2023-06-22T10:34:36;11.67;;;10.37;;
20621;SDS011;10470;42.670;23.354;2023-06-22T10:37:03;12.43;;;9.93;;
20621;SDS011;10470;42.670;23.354;2023-06-22T10:39:30;12.73;;;10.37;;
20621;SDS011;10470;42.670;23.354;2023-06-22T10:41:57;10.97;;;9.87;;
20621;SDS011;10470;42.670;23.354;2023-06-22T10:44:23;10.23;;;9.33;;
20621;SDS011;10470;42.670;23.354;2023-06-22T10:46:50;9.80;;;8.80;;
20621;SDS011;10470;42.670;23.354;2023-06-22T10:49:17;9.93;;;8.93;;
20621;SDS011;10470;42.670;23.354;2023-06-22T10:51:44;10.05;;;9.15;;
20621;SDS011;10470;42.670;23.354;2023-06-22T10:54:12;9.33;;;8.53;;
20621;SDS011;10470;42.670;23.354;2023-06-22T10:56:40;10.10;;;9.03;;
20621;SDS011;10470;42.670;23.354;2023-06-22T10:59:07;9.97;;;9.07;;
20621;SDS011;10470;42.670;23.354;2023-06-22T11:01:35;10.13;;;8.93;;
20621;SDS011;10470;42.670;23.354;2023-06-22T11:04:04;9.68;;;8.77;;
20621;SDS011;10470;42.670;23.354;2023-06-22T11:06:31;10.53;;;9.37;;
20621;SDS011;10470;42.670;23.354;2023-06-22T11:08:58;9.63;;;8.82;;
20621;SDS011;10470;42.670;23.354;2023-06-22T11:11:25;9.85;;;9.02;;
20621;SDS011;10470;42.670;23.354;2023-06-22T11:13:53;9.55;;;8.73;;
20621;SDS011;10470;42.670;23.354;2023-06-22T11:16:20;10.00;;;9.00;;
20621;SDS011;10470;42.670;23.354;2023-06-22T11:18:48;9.57;;;8.67;;
20621;SDS011;10470;42.670;23.354;2023-06-22T11:21:15;8.90;;;7.97;;
20621;SDS011;10470;42.670;23.354;2023-06-22T11:23:42;10.40;;;8.50;;
20621;SDS011;10470;42.670;23.354;2023-06-22T11:26:10;9.35;;;8.27;;
20621;SDS011;10470;42.670;23.354;2023-06-22T11:28:37;9.25;;;8.30;;
20621;SDS011;10470;42.670;23.354;2023-06-22T11:31:05;10.40;;;9.10;;
20621;SDS011;10470;42.670;23.354;2023-06-22T11:33:34;10.18;;;9.02;;
20621;SDS011;10470;42.670;23.354;2023-06-22T11:36:01;9.73;;;8.82;;
20621;SDS011;10470;42.670;23.354;2023-06-22T11:38:29;9.48;;;8.48;;
20621;SDS011;10470;42.670;23.354;2023-06-22T11:40:58;9.95;;;8.77;;
20621;SDS011;10470;42.670;23.354;2023-06-22T11:43:25;10.07;;;8.50;;
20621;SDS011;10470;42.670;23.354;2023-06-22T11:45:53;9.88;;;8.88;;
20621;SDS011;10470;42.670;23.354;2023-06-22T11:48:24;9.70;;;8.80;;
20621;SDS011;10470;42.670;23.354;2023-06-22T11:50:51;10.03;;;9.10;;
20621;SDS011;10470;42.670;23.354;2023-06-22T11:53:18;9.35;;;8.40;;
20621;SDS011;10470;42.670;23.354;2023-06-22T11:55:46;11.23;;;8.77;;
20621;SDS011;10470;42.670;23.354;2023-06-22T11:58:14;9.30;;;8.50;;
20621;SDS011;10470;42.670;23.354;2023-06-22T12:00:41;8.93;;;8.07;;
20621;SDS011;10470;42.670;23.354;2023-06-22T12:03:09;8.95;;;8.13;;
20621;SDS011;10470;42.670;23.354;2023-06-22T12:05:38;9.40;;;8.60;;
20621;SDS011;10470;42.670;23.354;2023-06-22T12:08:06;9.30;;;8.20;;
20621;SDS011;10470;42.670;23.354;2023-06-22T12:10:34;8.57;;;7.88;;
20621;SDS011;10470;42.670;23.354;2023-06-22T12:13:02;9.38;;;8.48;;
20621;SDS011;10470;42.670;23.354;2023-06-22T12:15:30;8.93;;;8.02;;
20621;SDS011;10470;42.670;23.354;2023-06-22T12:17:57;10.15;;;9.07;;
20621;SDS011;10470;42.670;23.354;2023-06-22T12:20:25;10.50;;;8.07;;
20621;SDS011;10470;42.670;23.354;2023-06-22T12:22:52;10.97;;;8.30;;
20621;SDS011;10470;42.670;23.354;2023-06-22T12:25:20;11.05;;;8.15;;
20621;SDS011;10470;42.670;23.354;2023-06-22T12:27:47;9.00;;;8.20;;
20621;SDS011;10470;42.670;23.354;2023-06-22T12:30:15;10.20;;;9.07;;
20621;SDS011;10470;42.670;23.354;2023-06-22T12:32:43;10.07;;;8.50;;
20621;SDS011;10470;42.670;23.354;2023-06-22T12:35:11;10.80;;;9.10;;
20621;SDS011;10470;42.670;23.354;2023-06-22T12:37:41;10.03;;;8.40;;
20621;SDS011;10470;42.670;23.354;2023-06-22T12:40:09;9.60;;;8.40;;
20621;SDS011;10470;42.670;23.354;2023-06-22T12:42:37;10.33;;;9.40;;
20621;SDS011;10470;42.670;23.354;2023-06-22T12:45:04;11.53;;;9.43;;
20621;SDS011;10470;42.670;23.354;2023-06-22T12:47:32;9.47;;;8.60;;
20621;SDS011;10470;42.670;23.354;2023-06-22T12:50:00;12.53;;;9.67;;
20621;SDS011;10470;42.670;23.354;2023-06-22T12:52:29;12.47;;;9.10;;
20621;SDS011;10470;42.670;23.354;2023-06-22T12:54:58;9.83;;;8.87;;
20621;SDS011;10470;42.670;23.354;2023-06-22T12:57:25;10.27;;;9.20;;
20621;SDS011;10470;42.670;23.354;2023-06-22T12:59:53;14.73;;;10.00;;
20621;SDS011;10470;42.670;23.354;2023-06-22T13:02:20;12.00;;;9.60;;
20621;SDS011;10470;42.670;23.354;2023-06-22T13:04:47;15.27;;;10.07;;
20621;SDS011;10470;42.670;23.354;2023-06-22T13:07:14;13.73;;;9.87;;
20621;SDS011;10470;42.670;23.354;2023-06-22T13:09:42;14.07;;;10.37;;
20621;SDS011;10470;42.670;23.354;2023-06-22T13:12:09;15.30;;;9.93;;
20621;SDS011;10470;42.670;23.354;2023-06-22T13:14:36;11.33;;;10.13;;
20621;SDS011;10470;42.670;23.354;2023-06-22T13:17:03;11.43;;;9.33;;
20621;SDS011;10470;42.670;23.354;2023-06-22T13:19:31;13.70;;;10.67;;
20621;SDS011;10470;42.670;23.354;2023-06-22T13:21:59;15.20;;;10.60;;
20621;SDS011;10470;42.670;23.354;2023-06-22T13:24:26;15.63;;;10.87;;
20621;SDS011;10470;42.670;23.354;2023-06-22T13:26:53;15.37;;;11.77;;
20621;SDS011;10470;42.670;23.354;2023-06-22T13:29:20;14.07;;;10.73;;
20621;SDS011;10470;42.670;23.354;2023-06-22T13:31:48;15.47;;;11.80;;
20621;SDS011;10470;42.670;23.354;2023-06-22T13:34:15;13.93;;;11.67;;
20621;SDS011;10470;42.670;23.354;2023-06-22T13:36:43;14.03;;;11.63;;
20621;SDS011;10470;42.670;23.354;2023-06-22T13:39:10;15.10;;;11.20;;
20621;SDS011;10470;42.670;23.354;2023-06-22T13:41:38;16.63;;;11.40;;
20621;SDS011;10470;42.670;23.354;2023-06-22T13:44:06;13.30;;;11.70;;
20621;SDS011;10470;42.670;23.354;2023-06-22T13:46:34;17.37;;;11.13;;
20621;SDS011;10470;42.670;23.354;2023-06-22T13:49:01;13.70;;;10.63;;
20621;SDS011;10470;42.670;23.354;2023-06-22T13:51:29;14.57;;;11.63;;
20621;SDS011;10470;42.670;23.354;2023-06-22T13:53:57;14.77;;;11.03;;
20621;SDS011;10470;42.670;23.354;2023-06-22T13:56:25;14.47;;;11.43;;
20621;SDS011;10470;42.670;23.354;2023-06-22T13:58:52;20.03;;;16.60;;
20621;SDS011;10470;42.670;23.354;2023-06-22T14:01:20;14.10;;;11.80;;
20621;SDS011;10470;42.670;23.354;2023-06-22T14:03:47;16.03;;;11.97;;
20621;SDS011;10470;42.670;23.354;2023-06-22T14:06:15;18.10;;;11.93;;
20621;SDS011;10470;42.670;23.354;2023-06-22T14:08:42;13.07;;;10.80;;
20621;SDS011;10470;42.670;23.354;2023-06-22T14:11:09;12.90;;;10.70;;
20621;SDS011;10470;42.670;23.354;2023-06-22T14:13:37;14.43;;;10.97;;
20621;SDS011;10470;42.670;23.354;2023-06-22T14:16:04;12.93;;;10.63;;
20621;SDS011;10470;42.670;23.354;2023-06-22T14:18:33;14.17;;;10.67;;
20621;SDS011;10470;42.670;23.354;2023-06-22T14:21:01;15.47;;;10.73;;
20621;SDS011;10470;42.670;23.354;2023-06-22T14:23:27;14.63;;;10.30;;
20621;SDS011;10470;42.670;23.354;2023-06-22T14:25:54;15.83;;;10.23;;
20621;SDS011;10470;42.670;23.354;2023-06-22T14:28:21;12.30;;;10.70;;
20621;SDS011;10470;42.670;23.354;2023-06-22T14:30:48;12.27;;;10.53;;